createdAt,value
2023-01-09T00:03:32.000Z,23.67
2023-01-09T00:06:04.087Z,26.00
2023-01-09T00:08:35.575Z,22.65
2023-01-09T00:11:07.872Z,23.88
2023-01-09T00:13:38.987Z,24.90
2023-01-09T00:16:11.541Z,25.38
2023-01-09T00:18:45.298Z,25.83
2023-01-09T00:21:20.095Z,25.33
2023-01-09T00:23:51.142Z,24.15
2023-01-09T00:26:24.084Z,26.38
2023-01-09T00:28:55.723Z,25.38
2023-01-09T00:31:27.015Z,25.80
2023-01-09T00:36:33.688Z,23.92
2023-01-09T00:39:05.332Z,26.52
2023-01-09T00:41:41.405Z,26.48
2023-01-09T00:44:15.316Z,25.30
2023-01-09T00:46:51.024Z,23.20
2023-01-09T00:49:25.346Z,22.90
2023-01-09T00:51:58.258Z,24.08
2023-01-09T00:54:30.829Z,25.98
2023-01-09T00:57:02.500Z,24.80
2023-01-09T00:59:33.965Z,24.17
2023-01-09T01:02:05.400Z,21.95
2023-01-09T01:04:51.331Z,23.73
2023-01-09T01:07:35.475Z,23.52
2023-01-09T01:10:06.531Z,24.10
2023-01-09T01:12:37.778Z,23.08
2023-01-09T01:17:42.176Z,23.23
2023-01-09T01:20:18.926Z,23.98
2023-01-09T01:22:50.958Z,24.45
2023-01-09T01:25:22.000Z,23.90
2023-01-09T01:27:53.572Z,24.27
2023-01-09T01:30:25.355Z,23.52
2023-01-09T01:32:56.666Z,25.00
2023-01-09T01:38:01.093Z,21.58
2023-01-09T01:43:03.936Z,23.33
2023-01-09T01:45:36.211Z,23.75
2023-01-09T01:48:12.578Z,25.02
2023-01-09T01:50:49.748Z,23.67
2023-01-09T01:53:25.996Z,25.77
2023-01-09T01:56:07.268Z,23.10
2023-01-09T01:58:45.061Z,24.02
2023-01-09T02:01:17.014Z,25.58
2023-01-09T02:03:49.965Z,24.55
2023-01-09T02:06:24.079Z,24.65
2023-01-09T02:08:55.313Z,22.92
2023-01-09T02:13:57.415Z,21.83
2023-01-09T02:16:40.992Z,22.85
2023-01-09T02:19:32.475Z,35.50
2023-01-09T02:22:15.482Z,23.60
2023-01-09T02:25:11.393Z,25.73
2023-01-09T02:28:16.795Z,22.77
2023-01-09T02:30:54.969Z,23.45
2023-01-09T02:33:40.566Z,24.35
2023-01-09T02:36:23.982Z,26.13
2023-01-09T02:39:11.673Z,26.05
2023-01-09T02:41:51.927Z,23.02
2023-01-09T02:44:25.942Z,26.33
2023-01-09T02:47:08.938Z,27.27
2023-01-09T02:49:42.819Z,24.25
2023-01-09T02:52:33.139Z,22.85
2023-01-09T02:55:13.577Z,24.88
2023-01-09T02:57:56.955Z,25.95
2023-01-09T03:00:38.791Z,24.95
2023-01-09T03:03:20.000Z,24.52
2023-01-09T03:08:31.158Z,22.70
2023-01-09T03:11:05.074Z,25.00
2023-01-09T03:13:41.877Z,24.80
2023-01-09T03:16:15.949Z,24.77
2023-01-09T03:18:53.068Z,23.95
2023-01-09T03:21:25.129Z,23.33
2023-01-09T03:23:58.834Z,23.50
2023-01-09T03:26:30.154Z,24.27
2023-01-09T03:29:02.556Z,23.98
2023-01-09T03:31:33.337Z,25.75
2023-01-09T03:34:07.375Z,25.83
2023-01-09T03:36:38.279Z,24.73
2023-01-09T03:39:09.523Z,23.33
2023-01-09T03:41:40.308Z,23.75
2023-01-09T03:44:11.892Z,24.58
2023-01-09T03:46:42.702Z,27.38
2023-01-09T03:49:17.833Z,25.90
2023-01-09T03:51:48.799Z,27.75
2023-01-09T03:54:19.918Z,23.55
2023-01-09T03:56:50.924Z,24.50
2023-01-09T03:59:22.147Z,24.50
2023-01-09T04:04:26.982Z,24.65
2023-01-09T04:06:58.135Z,24.00
2023-01-09T04:09:29.744Z,24.83
2023-01-09T04:12:00.512Z,26.65
2023-01-09T04:14:31.627Z,26.70
2023-01-09T04:19:35.889Z,23.20
2023-01-09T04:22:06.836Z,26.48
2023-01-09T04:24:38.151Z,26.40
2023-01-09T04:29:42.023Z,24.45
2023-01-09T04:32:12.843Z,28.45
2023-01-09T04:34:46.927Z,25.92
2023-01-09T04:37:17.714Z,28.05
2023-01-09T04:39:49.462Z,29.38
2023-01-09T04:42:20.326Z,30.33
2023-01-09T04:44:53.906Z,28.63
2023-01-09T04:47:24.713Z,27.67
2023-01-09T04:49:58.454Z,26.38
2023-01-09T04:52:31.556Z,27.83
2023-01-09T04:55:02.694Z,27.30
2023-01-09T04:57:33.471Z,28.92
2023-01-09T05:00:05.062Z,28.50
2023-01-09T05:02:35.834Z,27.20
2023-01-09T05:05:11.793Z,26.88
2023-01-09T05:07:43.118Z,26.55
2023-01-09T05:10:16.476Z,28.23
2023-01-09T05:12:47.468Z,25.60
2023-01-09T05:15:18.598Z,28.50
2023-01-09T05:20:23.234Z,26.98
2023-01-09T05:22:54.590Z,28.60
2023-01-09T05:25:25.694Z,29.50
2023-01-09T05:27:56.467Z,27.33
2023-01-09T05:30:27.575Z,27.85
2023-01-09T05:32:58.373Z,28.90
2023-01-09T05:35:32.241Z,25.05
2023-01-09T05:38:04.025Z,26.90
2023-01-09T05:40:40.123Z,26.98
2023-01-09T05:43:11.398Z,27.88
2023-01-09T05:45:42.767Z,28.35
2023-01-09T05:48:13.543Z,26.65
2023-01-09T05:50:47.476Z,29.50
2023-01-09T05:53:18.247Z,33.55
2023-01-09T05:55:49.650Z,28.75
2023-01-09T05:58:21.242Z,31.42
2023-01-09T06:00:52.429Z,28.17
2023-01-09T06:05:56.630Z,26.90
2023-01-09T06:08:28.502Z,26.77
2023-01-09T06:11:00.651Z,26.08
2023-01-09T06:13:31.555Z,27.35
2023-01-09T06:16:02.831Z,28.35
2023-01-09T06:21:07.406Z,24.25
2023-01-09T06:23:38.382Z,25.60
2023-01-09T06:26:09.537Z,25.30
2023-01-09T06:31:12.291Z,24.17
2023-01-09T06:33:44.199Z,25.63
2023-01-09T06:36:20.928Z,22.88
2023-01-09T06:38:52.961Z,25.90
2023-01-09T06:41:24.161Z,23.55
2023-01-09T06:46:25.849Z,25.35
2023-01-09T06:54:01.583Z,21.80
2023-01-09T06:56:32.943Z,24.88
2023-01-09T07:01:35.891Z,24.15
2023-01-09T07:04:08.412Z,24.23
2023-01-09T07:06:43.209Z,25.20
2023-01-09T07:09:15.427Z,25.77
2023-01-09T07:11:48.088Z,26.95
2023-01-09T07:14:18.991Z,26.48
2023-01-09T07:16:50.835Z,28.38
2023-01-09T07:19:22.362Z,29.23
2023-01-09T07:21:56.530Z,31.50
2023-01-09T07:24:27.992Z,31.00
2023-01-09T07:26:59.543Z,32.08
2023-01-09T07:29:31.108Z,27.90
2023-01-09T07:32:02.557Z,29.13
2023-01-09T07:34:33.344Z,27.77
2023-01-09T07:37:07.531Z,34.58
2023-01-09T07:39:39.007Z,30.27
2023-01-09T07:42:10.338Z,25.17
2023-01-09T07:44:41.561Z,28.63
2023-01-09T07:47:12.885Z,30.45
2023-01-09T07:49:44.332Z,29.63
2023-01-09T07:52:18.165Z,29.55
2023-01-09T07:54:49.239Z,32.17
2023-01-09T07:57:20.358Z,26.35
2023-01-09T07:59:51.292Z,27.63
2023-01-09T08:02:23.062Z,25.55
2023-01-09T08:04:54.365Z,26.50
2023-01-09T08:07:28.536Z,23.10
2023-01-09T08:09:59.947Z,25.63
2023-01-09T08:12:31.666Z,25.17
2023-01-09T08:15:03.037Z,24.52
2023-01-09T08:17:34.538Z,24.65
2023-01-09T08:20:06.613Z,22.88
2023-01-09T08:22:40.267Z,23.17
2023-01-09T08:25:13.384Z,20.50
2023-01-09T08:27:44.274Z,21.27
2023-01-09T08:30:16.833Z,22.60
2023-01-09T08:32:52.910Z,21.92
2023-01-09T08:35:25.044Z,23.73
2023-01-09T08:37:58.699Z,21.58
2023-01-09T08:40:29.968Z,21.30
2023-01-09T08:45:56.269Z,21.58
2023-01-09T08:48:27.113Z,22.35
2023-01-09T08:50:58.268Z,22.55
2023-01-09T08:56:03.006Z,24.10
2023-01-09T08:58:35.116Z,24.02
2023-01-09T09:01:09.594Z,23.30
2023-01-09T09:03:40.789Z,22.30
2023-01-09T09:06:11.891Z,21.05
2023-01-09T09:08:45.889Z,22.70
2023-01-09T09:11:17.061Z,22.83
2023-01-09T09:16:19.015Z,21.50
2023-01-09T09:18:50.134Z,24.00
2023-01-09T09:21:22.443Z,26.70
2023-01-09T09:23:58.177Z,24.70
2023-01-09T09:26:29.458Z,25.08
2023-01-09T09:31:31.390Z,24.67
2023-01-09T09:34:02.300Z,24.17
2023-01-09T09:36:33.732Z,24.50
2023-01-09T09:39:08.898Z,26.60
2023-01-09T09:42:21.430Z,24.65
2023-01-09T09:45:08.143Z,22.33
2023-01-09T09:47:49.446Z,25.95
2023-01-09T09:53:04.515Z,25.25
2023-01-09T09:55:40.787Z,25.13
2023-01-09T09:58:21.986Z,27.15
2023-01-09T10:00:54.168Z,28.92
2023-01-09T10:03:34.229Z,32.15
2023-01-09T10:06:11.058Z,26.37
2023-01-09T10:08:53.192Z,25.35
2023-01-09T10:11:30.669Z,25.83
2023-01-09T10:14:22.853Z,23.85
2023-01-09T10:17:19.168Z,23.50
2023-01-09T10:20:14.768Z,23.63
2023-01-09T10:22:54.485Z,28.92
2023-01-09T10:25:34.578Z,22.80
2023-01-09T10:28:27.064Z,24.65
2023-01-09T10:31:03.711Z,25.67
2023-01-09T10:33:47.134Z,24.77
2023-01-09T10:36:43.779Z,24.80
2023-01-09T10:39:21.879Z,24.80
2023-01-09T10:41:59.270Z,22.42
2023-01-09T10:44:39.159Z,25.15
2023-01-09T10:47:18.659Z,18.77
2023-01-09T10:49:51.997Z,24.65
2023-01-09T10:52:28.248Z,24.73
2023-01-09T10:55:01.273Z,24.52
2023-01-09T10:57:44.967Z,27.63
2023-01-09T11:00:24.759Z,25.42
2023-01-09T11:02:56.839Z,26.48
2023-01-09T11:05:31.805Z,24.25
2023-01-09T11:08:08.558Z,27.98
2023-01-09T11:10:58.285Z,25.48
2023-01-09T11:13:33.288Z,23.77
2023-01-09T11:16:16.775Z,23.60
2023-01-09T11:18:55.816Z,24.05
2023-01-09T11:21:36.402Z,26.67
2023-01-09T11:27:31.732Z,26.20
2023-01-09T11:30:28.031Z,21.65
2023-01-09T11:33:02.277Z,25.70
2023-01-09T11:35:35.911Z,25.42
2023-01-09T11:38:11.012Z,27.17
2023-01-09T11:40:50.743Z,26.65
2023-01-09T11:43:30.945Z,24.30
2023-01-09T11:46:05.937Z,24.17
2023-01-09T11:48:43.757Z,24.58
2023-01-09T11:51:24.355Z,25.02
2023-01-09T11:54:20.915Z,25.23
2023-01-09T11:56:53.126Z,27.38
2023-01-09T11:59:25.932Z,27.30
2023-01-09T12:02:16.846Z,23.92
2023-01-09T12:04:56.989Z,27.00
2023-01-09T12:07:52.339Z,26.70
2023-01-09T12:10:44.290Z,27.52
2023-01-09T12:13:28.486Z,25.98
2023-01-09T12:16:11.670Z,27.23
2023-01-09T12:18:55.725Z,27.13
2023-01-09T12:21:41.358Z,28.27
2023-01-09T12:24:29.274Z,29.88
2023-01-09T12:27:17.283Z,26.17
2023-01-09T12:30:05.049Z,26.50
2023-01-09T12:32:48.900Z,29.90
2023-01-09T12:35:32.617Z,28.65
2023-01-09T12:38:23.601Z,29.27
2023-01-09T12:41:31.298Z,25.40
2023-01-09T12:44:35.972Z,26.88
2023-01-09T12:47:23.539Z,27.45
2023-01-09T12:50:06.356Z,26.13
2023-01-09T12:52:43.928Z,23.52
2023-01-09T12:55:23.447Z,26.27
2023-01-09T12:57:58.058Z,27.70
2023-01-09T13:00:31.709Z,26.08
2023-01-09T13:03:12.787Z,25.90
2023-01-09T13:05:48.496Z,26.77
2023-01-09T13:08:24.572Z,28.77
2023-01-09T13:11:08.562Z,26.88
2023-01-09T13:13:50.396Z,26.30
2023-01-09T13:16:24.273Z,29.10
2023-01-09T13:18:59.669Z,28.02
2023-01-09T13:21:30.972Z,26.40
2023-01-09T13:24:10.547Z,25.42
2023-01-09T13:26:46.983Z,24.88
2023-01-09T13:29:22.622Z,28.77
2023-01-09T13:32:24.729Z,28.15
2023-01-09T13:34:58.338Z,43.60
2023-01-09T13:37:31.808Z,39.85
2023-01-09T13:40:04.904Z,38.00
2023-01-09T13:42:46.538Z,35.22
2023-01-09T13:45:26.660Z,37.22
2023-01-09T13:48:26.332Z,35.72
2023-01-09T13:51:32.418Z,32.55
2023-01-09T13:54:03.245Z,32.85
2023-01-09T13:56:34.457Z,32.22
2023-01-09T14:02:00.158Z,35.00
2023-01-09T14:04:47.609Z,30.25
2023-01-09T14:07:30.287Z,35.60
2023-01-09T14:10:03.868Z,40.90
2023-01-09T14:12:43.953Z,39.38
2023-01-09T14:15:30.745Z,41.17
2023-01-09T14:18:03.756Z,39.53
2023-01-09T14:20:39.562Z,35.67
2023-01-09T14:23:31.528Z,33.28
2023-01-09T14:26:03.152Z,46.30
2023-01-09T14:28:35.995Z,35.22
2023-01-09T14:31:12.405Z,29.52
2023-01-09T14:33:43.654Z,33.28
2023-01-09T14:38:52.710Z,38.13
2023-01-09T14:41:46.207Z,36.65
2023-01-09T14:44:31.368Z,34.15
2023-01-09T14:47:12.956Z,31.13
2023-01-09T14:49:47.142Z,32.78
2023-01-09T14:52:25.182Z,33.67
2023-01-09T14:54:59.133Z,29.90
2023-01-09T14:57:33.027Z,34.63
2023-01-09T15:00:06.310Z,30.20
2023-01-09T15:02:41.440Z,44.03
2023-01-09T15:05:16.206Z,41.13
2023-01-09T15:07:51.762Z,64.05
2023-01-09T15:10:25.813Z,40.78
2023-01-09T15:12:58.830Z,31.83
2023-01-09T15:15:30.606Z,26.92
2023-01-09T15:18:08.343Z,33.33
2023-01-09T15:20:40.450Z,35.40
2023-01-09T15:23:25.263Z,48.13
2023-01-09T15:25:57.260Z,37.20
2023-01-09T15:28:35.156Z,36.67
2023-01-09T15:31:12.109Z,42.92
2023-01-09T15:33:47.698Z,43.70
2023-01-09T15:36:23.006Z,34.85
2023-01-09T15:38:54.956Z,36.22
2023-01-09T15:41:41.815Z,39.03
2023-01-09T15:44:19.128Z,46.75
2023-01-09T15:46:51.195Z,42.40
2023-01-09T15:49:24.734Z,36.45
2023-01-09T15:51:57.479Z,38.13
2023-01-09T15:54:32.092Z,42.00
2023-01-09T15:57:34.389Z,37.30
2023-01-09T16:00:42.540Z,39.53
2023-01-09T16:03:22.947Z,38.60
2023-01-09T16:06:05.749Z,34.17
2023-01-09T16:08:40.571Z,36.88
2023-01-09T16:11:23.689Z,37.75
2023-01-09T16:13:55.763Z,38.72
2023-01-09T16:16:29.522Z,39.95
2023-01-09T16:19:01.760Z,39.08
2023-01-09T16:21:40.155Z,38.30
2023-01-09T16:24:28.489Z,38.88
2023-01-09T16:27:30.797Z,40.38
2023-01-09T16:30:03.892Z,62.08
2023-01-09T16:32:36.799Z,40.67
2023-01-09T16:35:17.572Z,51.22
2023-01-09T16:37:51.757Z,33.47
2023-01-09T16:40:30.070Z,39.88
2023-01-09T16:43:07.375Z,35.08
2023-01-09T16:45:40.726Z,38.78
2023-01-09T16:48:16.748Z,34.40
2023-01-09T16:50:47.903Z,33.20
2023-01-09T16:53:25.893Z,31.45
2023-01-09T16:55:58.109Z,30.08
2023-01-09T16:58:32.167Z,37.80
2023-01-09T17:01:04.021Z,35.58
2023-01-09T17:03:35.258Z,37.08
2023-01-09T17:06:08.346Z,32.60
2023-01-09T17:08:44.410Z,30.92
2023-01-09T17:11:23.317Z,34.05
2023-01-09T17:13:54.375Z,35.03
2023-01-09T17:16:26.306Z,40.00
2023-01-09T17:18:57.156Z,35.25
2023-01-09T17:21:31.078Z,37.83
2023-01-09T17:24:29.305Z,36.95
2023-01-09T17:27:14.077Z,38.30
2023-01-09T17:29:45.619Z,36.00
2023-01-09T17:32:18.427Z,41.75
2023-01-09T17:34:49.567Z,39.47
2023-01-09T17:37:22.345Z,46.72
2023-01-09T17:40:01.194Z,40.63
2023-01-09T17:42:32.629Z,41.30
2023-01-09T17:45:03.885Z,49.33
2023-01-09T17:47:35.483Z,41.28
2023-01-09T17:50:08.078Z,32.78
2023-01-09T17:52:39.303Z,37.58
2023-01-09T17:57:45.732Z,40.33
2023-01-09T18:00:28.249Z,38.55
2023-01-09T18:03:00.712Z,38.22
2023-01-09T18:05:32.310Z,36.85
2023-01-09T18:08:03.664Z,44.38
2023-01-09T18:10:37.907Z,59.38
2023-01-09T18:13:09.686Z,74.15
2023-01-09T18:15:41.124Z,37.03
2023-01-09T18:18:13.194Z,40.55
2023-01-09T18:20:44.471Z,37.10
2023-01-09T18:23:17.131Z,47.17
2023-01-09T18:25:50.773Z,59.80
2023-01-09T18:28:21.946Z,40.28
2023-01-09T18:30:54.089Z,51.70
2023-01-09T18:33:25.672Z,49.38
2023-01-09T18:35:57.242Z,38.15
2023-01-09T18:38:30.236Z,42.20
2023-01-09T18:41:06.152Z,45.85
2023-01-09T18:43:37.226Z,35.70
2023-01-09T18:46:12.113Z,40.95
2023-01-09T18:48:43.418Z,45.78
2023-01-09T18:53:45.103Z,37.60
2023-01-09T18:56:19.484Z,47.42
2023-01-09T18:58:51.248Z,47.33
2023-01-09T19:01:22.687Z,53.38
2023-01-09T19:03:54.403Z,47.67
2023-01-09T19:06:25.899Z,51.53
2023-01-09T19:08:57.988Z,44.38
2023-01-09T19:11:32.217Z,42.88
2023-01-09T19:14:03.444Z,45.30
2023-01-09T19:19:07.027Z,42.45
2023-01-09T19:21:38.619Z,41.33
2023-01-09T19:24:10.951Z,43.97
2023-01-09T19:26:45.440Z,42.95
2023-01-09T19:29:18.469Z,43.30
2023-01-09T19:31:52.368Z,39.08
2023-01-09T19:34:24.477Z,44.38
2023-01-09T19:36:55.782Z,45.90
2023-01-09T19:39:27.463Z,40.95
2023-01-09T19:42:02.229Z,46.83
2023-01-09T19:44:35.135Z,41.70
2023-01-09T19:47:06.058Z,42.15
2023-01-09T19:49:37.228Z,41.53
2023-01-09T19:52:08.677Z,40.10
2023-01-09T19:54:40.816Z,42.30
2023-01-09T19:57:14.219Z,39.70
2023-01-09T19:59:46.371Z,38.88
2023-01-09T20:02:17.573Z,37.78
2023-01-09T20:04:49.688Z,41.35
2023-01-09T20:07:21.563Z,40.28
2023-01-09T20:09:53.289Z,43.55
2023-01-09T20:12:27.511Z,40.17
2023-01-09T20:14:58.772Z,40.42
2023-01-09T20:20:00.667Z,41.00
2023-01-09T20:22:31.489Z,41.22
2023-01-09T20:25:03.672Z,42.03
2023-01-09T20:27:37.153Z,42.85
2023-01-09T20:30:10.937Z,47.88
2023-01-09T20:32:42.567Z,41.38
2023-01-09T20:35:13.895Z,43.72
2023-01-09T20:37:44.812Z,45.22
2023-01-09T20:40:16.846Z,48.22
2023-01-09T20:42:50.554Z,45.13
2023-01-09T20:45:22.283Z,45.08
2023-01-09T20:47:54.523Z,45.17
2023-01-09T20:50:27.352Z,42.17
2023-01-09T20:52:58.582Z,40.38
2023-01-09T20:55:30.212Z,43.45
2023-01-09T20:58:04.374Z,43.25
2023-01-09T21:00:35.723Z,41.40
2023-01-09T21:03:07.417Z,44.67
2023-01-09T21:05:38.592Z,42.72
2023-01-09T21:10:41.138Z,40.53
2023-01-09T21:13:14.621Z,42.72
2023-01-09T21:15:45.955Z,42.75
2023-01-09T21:18:16.867Z,44.05
2023-01-09T21:20:50.073Z,46.13
2023-01-09T21:23:22.360Z,46.65
2023-01-09T21:25:53.604Z,43.13
2023-01-09T21:30:58.316Z,48.80
2023-01-09T21:36:01.675Z,48.95
2023-01-09T21:38:32.523Z,49.85
2023-01-09T21:41:24.456Z,47.80
2023-01-09T21:44:11.006Z,48.35
2023-01-09T21:46:58.705Z,45.67
2023-01-09T21:49:31.518Z,48.38
2023-01-09T21:52:03.728Z,47.00
2023-01-09T21:54:35.377Z,42.13
2023-01-09T21:57:07.780Z,43.00
2023-01-09T21:59:41.584Z,42.88
2023-01-09T22:02:16.013Z,44.08
2023-01-09T22:04:49.248Z,42.35
2023-01-09T22:07:21.122Z,41.70
2023-01-09T22:09:51.887Z,47.03
2023-01-09T22:12:23.098Z,43.50
2023-01-09T22:17:27.939Z,49.50
2023-01-09T22:19:59.244Z,44.40
2023-01-09T22:22:30.374Z,46.20
2023-01-09T22:25:01.633Z,42.10
2023-01-09T22:27:32.738Z,44.90
2023-01-09T22:30:06.929Z,48.22
2023-01-09T22:32:38.447Z,51.83
2023-01-09T22:35:10.730Z,45.42
2023-01-09T22:37:42.885Z,44.63
2023-01-09T22:40:15.768Z,45.10
2023-01-09T22:42:47.490Z,42.30
2023-01-09T22:45:21.703Z,42.50
2023-01-09T22:47:53.935Z,48.13
2023-01-09T22:50:25.873Z,44.60
2023-01-09T22:52:57.072Z,42.53
2023-01-09T23:03:05.125Z,44.67
2023-01-09T23:05:36.052Z,44.47
2023-01-09T23:08:07.405Z,53.20
2023-01-09T23:10:38.299Z,51.65
2023-01-09T23:13:09.452Z,44.45
2023-01-09T23:15:42.896Z,40.78
2023-01-09T23:18:14.404Z,40.47
2023-01-09T23:20:45.321Z,43.60
2023-01-09T23:23:16.541Z,42.80
2023-01-09T23:25:51.498Z,44.17
2023-01-09T23:28:22.715Z,41.47
2023-01-09T23:30:56.617Z,42.83
2023-01-09T23:33:27.848Z,44.42
2023-01-09T23:38:30.213Z,43.78
2023-01-09T23:41:00.905Z,38.70
2023-01-09T23:43:30.402Z,56.05
2023-01-09T23:46:03.891Z,44.95
2023-01-09T23:48:36.127Z,45.35
2023-01-09T23:51:08.724Z,47.38
2023-01-09T23:53:39.922Z,46.42
2023-01-09T23:56:11.745Z,44.63
2023-01-09T23:58:42.864Z,43.08
